Time;durP1;ratioP1;P1;durP2;ratioP2;P2;SDS_P1;SDS_P2;PMS_P1;PMS_P2;Temp;Humidity;BMP_temperature;BMP_pressure;BME280_temperature;BME280_humidity;BME280_pressure;Samples;Min_cycle;Max_cycle;Signal;HPM_P1;HPM_P2
2023/01/20 00:00:48;;;;;;;2.80;0.90;;;1.30;99.90;;;;;;4941385;29;20047;-75
2023/01/20 00:03:13;;;;;;;2.15;1.10;;;1.60;99.90;;;;;;4944874;29;20039;-74
2023/01/20 00:05:39;;;;;;;3.53;1.40;;;1.40;99.90;;;;;;4926428;29;20538;-74
2023/01/20 00:08:05;;;;;;;1.93;1.20;;;1.50;99.90;;;;;;4929452;29;20039;-75
2023/01/20 00:10:30;;;;;;;1.58;1.02;;;1.50;99.90;;;;;;4921638;29;20778;-75
2023/01/20 00:12:56;;;;;;;2.03;0.85;;;1.50;99.90;;;;;;4925121;29;20055;-75
2023/01/20 00:15:22;;;;;;;2.88;1.40;;;1.60;99.90;;;;;;4927938;29;20050;-75
2023/01/20 00:17:47;;;;;;;3.00;1.15;;;1.50;99.90;;;;;;4939147;29;20050;-75
2023/01/20 00:20:13;;;;;;;1.90;1.13;;;1.60;99.90;;;;;;4931664;29;20051;-75
2023/01/20 00:22:41;;;;;;;1.92;1.20;;;1.80;99.90;;;;;;4912076;28;20582;-75
2023/01/20 00:25:09;;;;;;;1.42;0.95;;;1.70;99.90;;;;;;4909216;29;20079;-75
2023/01/20 00:27:35;;;;;;;3.05;1.30;;;1.50;99.90;;;;;;4926225;29;20447;-74
2023/01/20 00:30:01;;;;;;;2.42;1.27;;;1.60;99.90;;;;;;4938014;28;20047;-74
2023/01/20 00:32:27;;;;;;;0.95;0.80;;;1.50;99.90;;;;;;4949948;29;20047;-74
2023/01/20 00:34:53;;;;;;;3.00;0.90;;;1.50;99.90;;;;;;4913036;29;20039;-74
2023/01/20 00:37:18;;;;;;;2.42;1.40;;;1.60;99.90;;;;;;4929788;29;20043;-74
2023/01/20 00:39:44;;;;;;;1.95;1.25;;;1.50;99.90;;;;;;4929433;29;20102;-74
2023/01/20 00:42:09;;;;;;;2.33;1.70;;;1.70;99.90;;;;;;4944711;29;20078;-74
2023/01/20 00:44:35;;;;;;;2.47;1.70;;;1.60;99.90;;;;;;4942309;28;20090;-74
2023/01/20 00:47:01;;;;;;;3.45;1.70;;;1.50;99.90;;;;;;4950364;28;20047;-74
2023/01/20 00:49:26;;;;;;;3.70;1.93;;;1.90;99.90;;;;;;4913424;29;20075;-74
2023/01/20 00:51:52;;;;;;;3.28;2.13;;;1.90;99.90;;;;;;4928242;29;20286;-75
2023/01/20 00:54:18;;;;;;;3.67;1.80;;;1.60;99.90;;;;;;4925721;29;20411;-75
2023/01/20 00:56:43;;;;;;;2.40;1.90;;;1.80;99.90;;;;;;4940080;29;20280;-75
2023/01/20 00:59:09;;;;;;;3.17;2.10;;;1.70;99.90;;;;;;4945554;28;20450;-75
2023/01/20 01:01:35;;;;;;;3.10;2.20;;;1.90;99.90;;;;;;4926121;29;20051;-75
2023/01/20 01:04:01;;;;;;;3.03;2.30;;;1.80;99.90;;;;;;4928430;29;20478;-75
2023/01/20 01:06:26;;;;;;;3.60;2.67;;;1.80;99.90;;;;;;4935205;29;20137;-75
2023/01/20 01:08:52;;;;;;;3.33;2.50;;;2.10;99.90;;;;;;4928238;29;20050;-75
2023/01/20 01:11:18;;;;;;;4.38;2.75;;;2.20;99.90;;;;;;4929425;29;20462;-74
2023/01/20 01:13:43;;;;;;;4.82;3.60;;;2.00;99.90;;;;;;4927682;29;20150;-74
2023/01/20 01:16:11;;;;;;;6.25;3.85;;;2.10;99.90;;;;;;4927368;29;20039;-75
2023/01/20 01:18:37;;;;;;;6.63;4.18;;;2.50;99.90;;;;;;4945077;29;20056;-75
2023/01/20 01:21:11;;;;;;;6.47;4.45;;;2.30;99.90;;;;;;4946224;29;20090;-75
2023/01/20 01:23:36;;;;;;;4.82;3.42;;;2.50;99.90;;;;;;4932944;29;20043;-75
2023/01/20 01:26:02;;;;;;;6.67;4.00;;;2.50;99.90;;;;;;4927099;29;20521;-75
2023/01/20 01:28:28;;;;;;;8.93;5.25;;;2.20;99.90;;;;;;4927990;29;20287;-75
2023/01/20 01:30:54;;;;;;;8.82;5.80;;;2.50;99.90;;;;;;4925227;29;20043;-75
2023/01/20 01:33:19;;;;;;;13.93;7.28;;;2.30;99.90;;;;;;4931829;29;20047;-75
2023/01/20 01:35:57;;;;;;;10.18;6.82;;;2.80;99.90;;;;;;4945305;29;20047;-75
2023/01/20 01:38:24;;;;;;;10.10;6.80;;;2.80;99.90;;;;;;4915160;29;20050;-75
2023/01/20 01:40:50;;;;;;;;;;;2.40;99.90;;;;;;4946729;28;20035;-75
2023/01/20 01:43:23;;;;;;;9.55;6.65;;;2.40;99.90;;;;;;4939573;29;19927;-75
2023/01/20 01:45:49;;;;;;;10.93;7.35;;;2.50;99.90;;;;;;4926541;29;20071;-75
2023/01/20 01:48:15;;;;;;;8.52;5.68;;;2.80;99.90;;;;;;4943472;29;20081;-75
2023/01/20 01:50:50;;;;;;;9.27;5.50;;;2.90;99.90;;;;;;4945446;29;20048;-74
2023/01/20 01:53:16;;;;;;;6.85;5.00;;;2.70;99.90;;;;;;4944437;29;20077;-74
2023/01/20 01:55:49;;;;;;;6.85;4.70;;;2.80;99.90;;;;;;4944200;29;20055;-75
2023/01/20 01:58:18;;;;;;;6.70;5.05;;;2.60;99.90;;;;;;4912475;29;20051;-75
2023/01/20 02:00:44;;;;;;;8.23;5.82;;;2.80;99.90;;;;;;4927859;29;20035;-74
2023/01/20 02:03:10;;;;;;;;;;;2.80;99.90;;;;;;4944860;29;20054;-74
2023/01/20 02:05:37;;;;;;;7.45;5.28;;;2.70;99.90;;;;;;4965886;28;19922;-74
2023/01/20 02:08:03;;;;;;;7.30;4.75;;;2.40;99.90;;;;;;4927173;29;20172;-74
2023/01/20 02:10:30;;;;;;;6.85;5.20;;;2.40;99.90;;;;;;4902390;29;20043;-74
2023/01/20 02:12:56;;;;;;;;;;;2.10;99.90;;;;;;4944972;29;20070;-74
2023/01/20 02:15:26;;;;;;;6.80;4.93;;;2.40;99.90;;;;;;4943532;29;19978;-74
2023/01/20 02:18:34;;;;;;;6.43;4.90;;;2.30;99.90;;;;;;4942013;29;20043;-74
2023/01/20 02:21:25;;;;;;;8.68;5.03;;;2.50;99.90;;;;;;4927179;29;20455;-74
2023/01/20 02:24:40;;;;;;;6.10;4.68;;;2.10;99.90;;;;;;4942656;28;20066;-74
2023/01/20 02:27:28;;;;;;;6.88;4.50;;;2.30;99.90;;;;;;4921928;29;20084;-74
2023/01/20 02:30:25;;;;;;;6.38;4.55;;;2.00;99.90;;;;;;4924710;29;20499;-74
2023/01/20 02:33:00;;;;;;;8.48;5.88;;;2.20;99.90;;;;;;4904110;29;20039;-74
2023/01/20 02:35:36;;;;;;;7.50;4.93;;;2.50;99.90;;;;;;4928212;29;20050;-74
2023/01/20 02:38:20;;;;;;;10.48;6.35;;;2.70;99.90;;;;;;4944824;28;20046;-74
2023/01/20 02:40:52;;;;;;;8.80;6.30;;;2.50;99.90;;;;;;4928880;29;20080;-74
2023/01/20 02:43:56;;;;;;;9.43;6.97;;;2.70;99.90;;;;;;4942521;29;20059;-74
2023/01/20 02:46:32;;;;;;;10.77;7.32;;;3.10;99.90;;;;;;4857791;29;20041;-75
2023/01/20 02:49:13;;;;;;;7.47;5.07;;;2.70;99.90;;;;;;4944885;29;20131;-74
2023/01/20 02:51:45;;;;;;;9.50;7.25;;;3.00;99.90;;;;;;4926276;29;20484;-74
2023/01/20 02:54:15;;;;;;;9.52;6.50;;;2.90;99.90;;;;;;4928909;29;20421;-74
2023/01/20 02:56:42;;;;;;;9.77;6.85;;;3.40;99.90;;;;;;4926632;29;20127;-74
2023/01/20 02:59:12;;;;;;;11.73;7.57;;;3.40;99.90;;;;;;4939135;29;20043;-74
2023/01/20 03:02:03;;;;;;;11.77;7.82;;;3.30;99.90;;;;;;4944337;29;20047;-74
2023/01/20 03:05:00;;;;;;;12.88;7.82;;;3.40;99.90;;;;;;4939599;29;20039;-74
2023/01/20 03:07:28;;;;;;;10.20;7.57;;;3.10;99.90;;;;;;4943344;28;20043;-74
2023/01/20 03:09:57;;;;;;;11.02;8.07;;;3.40;99.90;;;;;;4943135;29;20130;-74
2023/01/20 03:12:35;;;;;;;10.63;7.55;;;3.50;99.90;;;;;;4927247;29;20058;-74
2023/01/20 03:15:01;;;;;;;8.98;6.80;;;3.30;99.90;;;;;;4941771;29;20043;-74
2023/01/20 03:17:27;;;;;;;7.20;5.57;;;3.40;99.90;;;;;;4941408;29;20100;-74
2023/01/20 03:19:53;;;;;;;7.32;5.55;;;3.40;99.90;;;;;;4940631;29;20051;-74
2023/01/20 03:22:19;;;;;;;8.05;5.95;;;3.40;99.90;;;;;;4940986;29;20039;-74
2023/01/20 03:24:47;;;;;;;9.20;6.88;;;3.40;99.90;;;;;;4941718;28;20549;-74
2023/01/20 03:27:13;;;;;;;10.48;7.18;;;2.80;99.90;;;;;;4936024;29;20044;-74
2023/01/20 03:29:39;;;;;;;6.20;4.95;;;2.90;99.90;;;;;;4940661;29;20075;-74
2023/01/20 03:32:08;;;;;;;8.07;5.45;;;3.30;99.90;;;;;;4940760;29;20047;-74
2023/01/20 03:34:35;;;;;;;9.15;7.50;;;3.40;99.90;;;;;;4907421;29;20553;-74
2023/01/20 03:37:03;;;;;;;9.60;7.57;;;3.40;99.90;;;;;;4927569;29;20050;-74
2023/01/20 03:39:30;;;;;;;12.38;9.15;;;3.50;99.90;;;;;;4938667;29;20054;-74
2023/01/20 03:42:19;;;;;;;12.82;9.75;;;3.20;99.90;;;;;;4926177;29;20055;-74
2023/01/20 03:45:07;;;;;;;16.90;10.95;;;3.80;99.90;;;;;;4942314;29;20063;-74
2023/01/20 03:47:35;;;;;;;;;;;3.30;99.90;;;;;;4925707;29;20075;-74
2023/01/20 03:50:20;;;;;;;16.23;11.43;;;3.90;99.90;;;;;;4926164;29;19933;-74
2023/01/20 03:52:56;;;;;;;15.95;10.88;;;4.10;99.90;;;;;;4939514;29;20043;-74
2023/01/20 03:55:28;;;;;;;17.20;11.15;;;3.60;99.90;;;;;;4942870;29;20380;-74
2023/01/20 03:58:13;;;;;;;17.45;11.90;;;4.20;99.90;;;;;;4941019;29;20035;-74
2023/01/20 04:00:43;;;;;;;20.80;13.90;;;4.20;99.90;;;;;;4924891;29;20074;-74
2023/01/20 04:03:22;;;;;;;14.60;10.63;;;3.60;99.90;;;;;;4938798;29;20046;-74
2023/01/20 04:05:48;;;;;;;15.77;10.70;;;3.60;99.90;;;;;;4938265;29;20501;-74
2023/01/20 04:08:16;;;;;;;19.15;12.05;;;3.50;99.90;;;;;;4943307;29;20106;-74
2023/01/20 04:10:45;;;;;;;17.05;11.25;;;3.50;99.90;;;;;;4921688;29;20102;-74
2023/01/20 04:13:11;;;;;;;19.67;13.45;;;3.60;99.90;;;;;;4924546;29;20054;-74
2023/01/20 04:15:41;;;;;;;19.00;12.75;;;4.40;99.90;;;;;;4941690;29;20048;-74
2023/01/20 04:18:16;;;;;;;16.30;11.40;;;3.70;99.90;;;;;;4941015;29;20066;-74
2023/01/20 04:20:44;;;;;;;17.67;12.18;;;4.30;99.90;;;;;;4938537;29;20050;-75
2023/01/20 04:23:23;;;;;;;16.65;11.13;;;3.60;99.90;;;;;;4938769;28;20055;-75
2023/01/20 04:25:49;;;;;;;20.35;12.32;;;3.60;99.90;;;;;;4924118;29;20042;-75
2023/01/20 04:28:15;;;;;;;17.63;11.50;;;4.30;99.90;;;;;;4923563;29;20834;-75
2023/01/20 04:30:40;;;;;;;17.65;11.77;;;4.10;99.90;;;;;;4927301;29;20043;-75
2023/01/20 04:33:06;;;;;;;16.95;11.65;;;3.70;99.90;;;;;;4939395;29;20154;-75
2023/01/20 04:35:32;;;;;;;13.60;9.15;;;3.70;99.90;;;;;;4939709;29;20499;-74
2023/01/20 04:37:57;;;;;;;20.08;12.90;;;4.10;99.90;;;;;;4923236;28;20054;-75
2023/01/20 04:40:23;;;;;;;20.80;13.40;;;3.80;99.90;;;;;;4924237;29;20047;-74
2023/01/20 04:42:49;;;;;;;18.70;12.55;;;4.10;99.90;;;;;;4924032;29;20055;-74
2023/01/20 04:45:16;;;;;;;16.88;11.55;;;3.70;99.90;;;;;;4943057;29;20494;-73
2023/01/20 04:47:42;;;;;;;16.23;10.82;;;3.90;99.90;;;;;;4923924;29;20101;-73
2023/01/20 04:50:09;;;;;;;19.25;11.75;;;4.40;99.90;;;;;;4926439;29;20044;-73
2023/01/20 04:52:34;;;;;;;15.13;10.20;;;3.70;99.90;;;;;;4926223;29;20407;-73
2023/01/20 04:55:00;;;;;;;15.55;10.63;;;3.60;99.90;;;;;;4923133;29;20082;-73
2023/01/20 04:57:26;;;;;;;17.60;10.95;;;4.30;99.90;;;;;;4940138;29;20043;-73
2023/01/20 04:59:52;;;;;;;18.63;11.67;;;3.70;99.90;;;;;;4939795;29;20778;-73
2023/01/20 05:02:17;;;;;;;16.67;10.75;;;4.30;99.90;;;;;;4934040;29;20865;-73
2023/01/20 05:04:44;;;;;;;20.33;11.93;;;4.00;99.90;;;;;;4924292;29;20043;-73
2023/01/20 05:07:10;;;;;;;19.30;11.85;;;4.10;99.90;;;;;;4940594;29;20047;-73
2023/01/20 05:09:35;;;;;;;16.70;11.18;;;3.70;99.90;;;;;;4924975;29;20047;-73
2023/01/20 05:12:01;;;;;;;18.55;11.05;;;4.20;99.90;;;;;;4938207;29;20048;-73
2023/01/20 05:14:27;;;;;;;17.17;10.15;;;4.30;99.90;;;;;;4922406;29;20035;-73
2023/01/20 05:16:53;;;;;;;18.40;11.00;;;3.90;99.90;;;;;;4942595;28;20031;-73
2023/01/20 05:19:18;;;;;;;18.08;11.75;;;4.00;99.90;;;;;;4945464;29;20119;-73
2023/01/20 05:21:44;;;;;;;16.60;10.18;;;3.90;99.90;;;;;;4944368;29;20046;-73
2023/01/20 05:24:10;;;;;;;14.00;8.75;;;3.80;99.90;;;;;;4910382;29;20085;-73
2023/01/20 05:26:35;;;;;;;12.25;8.00;;;3.70;99.90;;;;;;4928628;29;20089;-73
2023/01/20 05:29:01;;;;;;;17.20;10.52;;;4.30;99.90;;;;;;4927726;29;20052;-73
2023/01/20 05:31:27;;;;;;;18.98;10.80;;;3.60;99.90;;;;;;4942022;29;20051;-73
2023/01/20 05:33:53;;;;;;;18.52;11.25;;;3.60;99.90;;;;;;4912494;29;20046;-73
2023/01/20 05:36:19;;;;;;;16.88;10.35;;;4.20;99.90;;;;;;4941689;29;20486;-73
2023/01/20 05:38:44;;;;;;;17.08;10.48;;;3.90;99.90;;;;;;4945153;28;20071;-73
2023/01/20 05:41:10;;;;;;;12.88;8.00;;;3.90;99.90;;;;;;4942614;29;20404;-74
2023/01/20 05:43:36;;;;;;;16.55;9.73;;;4.10;99.90;;;;;;4926910;29;20078;-74
2023/01/20 05:46:03;;;;;;;16.70;10.55;;;4.00;99.90;;;;;;4943970;29;20557;-73
2023/01/20 05:48:28;;;;;;;17.92;10.85;;;4.10;99.90;;;;;;4943466;29;20050;-74
2023/01/20 05:50:54;;;;;;;16.73;10.48;;;4.40;99.90;;;;;;4941944;29;20043;-74
2023/01/20 05:53:20;;;;;;;18.35;11.65;;;3.70;99.90;;;;;;4928944;29;20066;-77
2023/01/20 05:55:46;;;;;;;21.60;10.60;;;4.40;99.90;;;;;;4928427;28;20039;-74
2023/01/20 05:58:12;;;;;;;15.90;10.57;;;4.30;99.90;;;;;;4925460;29;20058;-74
2023/01/20 06:00:38;;;;;;;13.77;8.75;;;4.40;99.90;;;;;;4933067;29;20407;-74
2023/01/20 06:03:04;;;;;;;17.10;11.50;;;4.30;99.90;;;;;;4942051;29;20089;-74
2023/01/20 06:05:30;;;;;;;16.42;10.95;;;4.30;99.90;;;;;;4928304;29;20051;-74
2023/01/20 06:07:57;;;;;;;19.45;12.20;;;3.80;99.90;;;;;;4944280;29;20047;-74
2023/01/20 06:10:29;;;;;;;;;;;3.80;99.90;;;;;;4926754;29;20082;-74
2023/01/20 06:12:55;;;;;;;19.88;12.60;;;3.80;99.90;;;;;;4923863;29;19929;-74
2023/01/20 06:15:25;;;;;;;19.13;11.50;;;4.40;99.90;;;;;;4927405;28;20044;-74
2023/01/20 06:17:51;;;;;;;21.75;12.38;;;3.90;99.90;;;;;;4904564;29;20039;-74
2023/01/20 06:20:17;;;;;;;20.95;11.88;;;4.20;99.90;;;;;;4914167;29;20035;-74
2023/01/20 06:22:43;;;;;;;20.98;12.70;;;3.80;99.90;;;;;;4895047;28;20042;-74
2023/01/20 06:25:09;;;;;;;23.42;13.45;;;4.20;99.90;;;;;;4924415;29;20047;-74
2023/01/20 06:27:36;;;;;;;22.77;13.13;;;4.20;99.90;;;;;;4924142;29;20438;-74
2023/01/20 06:30:02;;;;;;;23.42;13.38;;;4.50;99.90;;;;;;4941731;28;20043;-73
2023/01/20 06:32:31;;;;;;;21.63;12.82;;;4.00;99.90;;;;;;4939558;28;20791;-75
2023/01/20 06:34:56;;;;;;;24.15;12.45;;;4.30;99.90;;;;;;4924317;29;20114;-75
2023/01/20 06:37:22;;;;;;;23.63;12.90;;;3.90;99.90;;;;;;4941310;29;20035;-75
2023/01/20 06:39:48;;;;;;;16.90;10.25;;;4.10;99.90;;;;;;4923655;29;20045;-75
2023/01/20 06:42:13;;;;;;;24.98;13.60;;;4.40;99.90;;;;;;4941332;29;20051;-75
2023/01/20 06:44:39;;;;;;;21.20;13.63;;;4.50;99.90;;;;;;4909893;28;20047;-75
2023/01/20 06:47:05;;;;;;;20.08;12.85;;;4.40;99.90;;;;;;4941504;29;20146;-75
2023/01/20 06:49:32;;;;;;;21.90;13.30;;;4.50;99.90;;;;;;4923780;29;20039;-74
2023/01/20 06:51:58;;;;;;;24.58;14.25;;;4.00;99.90;;;;;;4943262;29;20058;-75
2023/01/20 06:54:24;;;;;;;23.67;14.00;;;4.00;99.90;;;;;;4922673;28;20398;-76
2023/01/20 06:56:50;;;;;;;21.23;13.38;;;4.50;99.90;;;;;;4926865;29;20480;-76
2023/01/20 06:59:15;;;;;;;17.65;11.23;;;4.30;99.90;;;;;;4940053;28;20047;-76
2023/01/20 07:01:41;;;;;;;22.65;12.68;;;3.90;99.90;;;;;;4934685;28;20126;-76
2023/01/20 07:04:08;;;;;;;24.30;14.25;;;4.00;99.90;;;;;;4942152;28;20132;-75
2023/01/20 07:06:38;;;;;;;20.02;12.32;;;3.90;99.90;;;;;;4912484;29;20098;-75
2023/01/20 07:09:06;;;;;;;20.83;12.38;;;4.00;99.90;;;;;;4942446;29;20558;-75
2023/01/20 07:11:33;;;;;;;19.42;12.10;;;4.30;99.90;;;;;;4940395;29;20094;-75
2023/01/20 07:14:00;;;;;;;20.38;12.80;;;4.50;99.90;;;;;;4909108;29;20059;-75
2023/01/20 07:16:25;;;;;;;23.90;14.70;;;4.30;99.90;;;;;;4941514;29;20043;-75
2023/01/20 07:18:52;;;;;;;21.02;13.30;;;4.10;99.90;;;;;;4930705;29;20042;-75
2023/01/20 07:21:19;;;;;;;25.13;12.85;;;3.90;99.90;;;;;;4938633;29;20043;-74
2023/01/20 07:23:45;;;;;;;21.60;12.93;;;4.40;99.90;;;;;;4933555;29;20083;-74
2023/01/20 07:26:19;;;;;;;18.83;11.95;;;3.90;99.90;;;;;;4951745;29;20616;-74
2023/01/20 07:28:45;;;;;;;20.67;12.68;;;3.90;99.90;;;;;;4951554;29;20414;-74
2023/01/20 07:31:22;;;;;;;19.83;12.00;;;4.00;99.90;;;;;;4935576;29;20121;-74
2023/01/20 07:33:49;;;;;;;23.27;14.38;;;4.00;99.90;;;;;;4935669;29;20054;-74
2023/01/20 07:36:16;;;;;;;22.92;13.73;;;3.90;99.90;;;;;;4951575;29;20095;-74
2023/01/20 07:38:42;;;;;;;24.02;14.15;;;4.30;99.90;;;;;;4951132;28;20054;-74
2023/01/20 07:41:14;;;;;;;25.45;14.80;;;4.00;99.90;;;;;;4935341;29;20070;-74
2023/01/20 07:43:43;;;;;;;24.65;14.93;;;4.00;99.90;;;;;;4938024;29;20422;-75
2023/01/20 07:46:09;;;;;;;27.25;15.27;;;3.90;99.90;;;;;;4929883;29;20426;-74
2023/01/20 07:48:35;;;;;;;29.70;15.90;;;4.10;99.90;;;;;;4944385;29;20047;-75
2023/01/20 07:51:04;;;;;;;29.48;16.65;;;4.40;99.90;;;;;;4932469;29;20137;-76
2023/01/20 07:53:50;;;;;;;25.52;16.10;;;4.30;99.90;;;;;;4952631;28;20048;-74
2023/01/20 07:56:20;;;;;;;24.77;15.05;;;4.00;99.90;;;;;;4940858;29;20086;-75
2023/01/20 07:58:49;;;;;;;26.88;16.08;;;4.10;99.90;;;;;;4935204;29;20398;-75
2023/01/20 08:01:19;;;;;;;26.30;15.95;;;4.30;99.90;;;;;;4943454;29;20047;-75
2023/01/20 08:03:45;;;;;;;27.05;15.90;;;4.30;99.90;;;;;;4948070;28;20047;-75
2023/01/20 08:06:13;;;;;;;24.35;14.52;;;4.30;99.90;;;;;;4950500;29;20046;-75
2023/01/20 08:08:39;;;;;;;31.67;17.75;;;4.30;99.90;;;;;;4931897;29;20114;-74
2023/01/20 08:11:06;;;;;;;27.40;16.67;;;4.00;99.90;;;;;;4913802;29;20046;-74
2023/01/20 08:13:32;;;;;;;33.28;18.92;;;4.00;99.90;;;;;;4925832;29;20047;-74
2023/01/20 08:16:02;;;;;;;28.05;16.35;;;4.20;99.90;;;;;;4947580;29;20114;-74
2023/01/20 08:18:29;;;;;;;28.42;16.00;;;4.00;99.90;;;;;;4941164;29;20042;-74
2023/01/20 08:20:54;;;;;;;26.52;15.93;;;4.40;99.90;;;;;;4938510;29;20410;-74
2023/01/20 08:23:20;;;;;;;26.95;15.80;;;4.30;99.90;;;;;;4947831;28;20043;-74
2023/01/20 08:25:46;;;;;;;27.17;16.00;;;4.40;99.90;;;;;;4932457;29;20054;-74
2023/01/20 08:28:11;;;;;;;26.38;15.85;;;4.20;99.90;;;;;;4946408;29;20051;-74
2023/01/20 08:30:38;;;;;;;24.42;13.55;;;4.00;99.90;;;;;;4944818;29;20047;-74
2023/01/20 08:33:04;;;;;;;;;;;4.10;99.90;;;;;;4943380;28;20043;-74
2023/01/20 08:35:29;;;;;;;27.70;16.17;;;4.30;99.90;;;;;;4923757;29;19927;-74
2023/01/20 08:37:55;;;;;;;28.63;16.45;;;4.30;99.90;;;;;;4920098;29;20125;-75
2023/01/20 08:40:21;;;;;;;26.65;15.00;;;4.10;99.90;;;;;;4940033;29;20036;-74
2023/01/20 08:42:46;;;;;;;23.05;13.65;;;4.10;99.90;;;;;;4918088;29;20051;-74
2023/01/20 08:45:13;;;;;;;33.75;19.05;;;4.00;99.90;;;;;;4944839;28;20118;-74
2023/01/20 08:47:43;;;;;;;31.25;18.20;;;4.20;99.90;;;;;;4928689;29;20051;-74
2023/01/20 08:50:10;;;;;;;28.88;17.20;;;4.10;99.90;;;;;;4932837;29;20498;-74
2023/01/20 08:52:35;;;;;;;32.33;18.25;;;4.10;99.90;;;;;;4929252;29;20082;-75
2023/01/20 08:55:01;;;;;;;33.63;19.05;;;4.40;99.90;;;;;;4948262;29;20125;-75
2023/01/20 08:57:27;;;;;;;28.65;16.85;;;4.10;99.90;;;;;;4953574;29;20051;-75
2023/01/20 08:59:53;;;;;;;29.63;16.63;;;4.20;99.90;;;;;;4950069;29;20402;-75
2023/01/20 09:02:19;;;;;;;28.85;17.10;;;4.30;99.90;;;;;;4906126;29;20071;-75
2023/01/20 09:04:45;;;;;;;32.83;18.63;;;4.20;99.90;;;;;;4925525;29;20416;-74
2023/01/20 09:07:11;;;;;;;29.52;17.98;;;4.40;99.90;;;;;;4951384;29;20054;-75
2023/01/20 09:09:37;;;;;;;35.97;19.80;;;4.20;99.90;;;;;;4934157;29;20055;-75
2023/01/20 09:12:05;;;;;;;33.85;19.88;;;4.40;99.90;;;;;;4940161;29;20171;-75
2023/01/20 09:14:31;;;;;;;34.95;20.23;;;4.40;99.90;;;;;;4925145;29;20052;-75
2023/01/20 09:16:57;;;;;;;35.60;20.40;;;4.10;99.90;;;;;;4924529;29;20094;-75
2023/01/20 09:19:22;;;;;;;31.80;18.63;;;4.20;99.90;;;;;;4948919;29;20427;-75
2023/01/20 09:21:48;;;;;;;31.38;18.77;;;4.40;99.90;;;;;;4953059;29;20063;-75
2023/01/20 09:24:14;;;;;;;36.27;20.87;;;4.40;99.90;;;;;;4937943;29;20058;-75
2023/01/20 09:26:40;;;;;;;34.42;19.45;;;4.20;99.90;;;;;;4954001;29;20291;-75
2023/01/20 09:29:09;;;;;;;32.65;18.83;;;4.10;99.90;;;;;;4953974;29;20054;-75
2023/01/20 09:31:44;;;;;;;31.88;18.30;;;4.10;99.90;;;;;;4953767;29;20090;-75
2023/01/20 09:34:17;;;;;;;35.70;18.55;;;4.10;99.90;;;;;;4954204;29;20043;-74
2023/01/20 09:36:44;;;;;;;33.47;19.13;;;4.20;99.90;;;;;;4937867;29;20079;-74
2023/01/20 09:45:25;;;;;;;33.40;17.88;;;4.10;99.90;;;;;;4953764;29;20083;-74
2023/01/20 09:47:55;;;;;;;33.65;19.10;;;4.00;99.90;;;;;;4953469;29;20054;-74
2023/01/20 09:53:42;;;;;;;34.65;18.77;;;4.10;99.90;;;;;;4953303;29;20051;-74
2023/01/20 09:56:13;;;;;;;32.35;18.23;;;4.00;99.90;;;;;;4953290;29;20410;-74
2023/01/20 09:58:55;;;;;;;31.83;18.65;;;4.00;99.90;;;;;;4953204;29;20135;-74
2023/01/20 10:01:43;;;;;;;34.00;19.40;;;4.10;99.90;;;;;;4953533;28;20043;-74
2023/01/20 10:04:19;;;;;;;35.10;19.52;;;3.90;99.90;;;;;;4953233;29;20133;-74
2023/01/20 10:06:59;;;;;;;34.20;18.35;;;4.00;99.90;;;;;;4953265;29;20047;-75
2023/01/20 10:09:56;;;;;;;35.97;19.45;;;4.10;99.90;;;;;;4953199;29;20051;-75
2023/01/20 10:12:32;;;;;;;33.03;17.98;;;3.90;99.90;;;;;;4937214;29;20047;-75
2023/01/20 10:15:11;;;;;;;35.05;18.83;;;3.80;99.90;;;;;;4937018;29;20040;-75
2023/01/20 10:17:50;;;;;;;34.47;19.63;;;3.80;99.90;;;;;;4953058;29;20102;-75
2023/01/20 10:20:23;;;;;;;35.92;20.52;;;3.90;99.90;;;;;;4937374;29;20394;-75
2023/01/20 10:23:20;;;;;;;34.20;18.55;;;3.80;99.90;;;;;;4952793;28;20043;-75
2023/01/20 10:25:51;;;;;;;36.85;18.60;;;3.90;99.90;;;;;;4871527;28;20068;-75
2023/01/20 10:28:28;;;;;;;37.28;19.75;;;3.80;99.90;;;;;;4937069;29;20087;-75
2023/01/20 10:30:57;;;;;;;35.83;19.35;;;3.70;99.90;;;;;;4953007;29;20047;-75
2023/01/20 10:33:36;;;;;;;36.55;19.23;;;3.70;99.90;;;;;;4952619;29;20047;-75
2023/01/20 10:36:02;;;;;;;33.95;18.70;;;3.60;99.90;;;;;;4952691;29;20047;-75
2023/01/20 10:39:02;;;;;;;37.50;18.92;;;3.70;99.90;;;;;;4920970;29;20094;-75
2023/01/20 10:41:35;;;;;;;39.85;19.35;;;3.60;99.90;;;;;;4952413;29;20063;-74
2023/01/20 10:44:13;;;;;;;35.53;18.58;;;3.60;99.90;;;;;;4936419;29;20141;-74
2023/01/20 10:47:10;;;;;;;39.22;18.90;;;3.60;99.90;;;;;;4936656;29;20398;-74
2023/01/20 10:50:02;;;;;;;30.65;16.80;;;3.70;99.90;;;;;;4936649;29;20046;-74
2023/01/20 10:52:33;;;;;;;35.67;18.83;;;3.60;99.90;;;;;;4926350;29;20098;-74
2023/01/20 10:55:17;;;;;;;34.88;18.08;;;3.60;99.90;;;;;;4936486;29;20138;-74
2023/01/20 10:57:43;;;;;;;31.15;16.45;;;3.60;99.90;;;;;;4936342;29;20047;-74
2023/01/20 11:00:29;;;;;;;30.90;16.55;;;3.60;99.90;;;;;;4920613;29;20051;-74
2023/01/20 11:02:59;;;;;;;37.57;19.20;;;3.60;99.90;;;;;;4936215;29;20062;-74
2023/01/20 11:05:28;;;;;;;34.40;17.88;;;3.60;99.90;;;;;;4936282;29;20345;-74
2023/01/20 11:07:57;;;;;;;34.72;18.98;;;3.50;99.90;;;;;;4936101;29;20146;-74
2023/01/20 11:10:28;;;;;;;34.30;18.02;;;3.40;99.90;;;;;;4936003;29;20051;-74
2023/01/20 11:12:56;;;;;;;33.30;17.83;;;3.40;99.90;;;;;;4935958;28;20047;-74
2023/01/20 11:15:30;;;;;;;39.58;19.05;;;3.30;99.90;;;;;;4935841;29;20122;-74
2023/01/20 11:18:13;;;;;;;34.08;17.30;;;3.40;99.90;;;;;;4935940;29;20071;-74
2023/01/20 11:20:47;;;;;;;31.48;16.52;;;3.40;99.90;;;;;;4935877;29;20125;-74
2023/01/20 11:23:36;;;;;;;30.70;16.48;;;3.40;99.90;;;;;;4935895;29;20122;-74
2023/01/20 11:26:08;;;;;;;36.45;18.02;;;3.50;99.90;;;;;;4935881;29;20055;-74
2023/01/20 11:28:58;;;;;;;33.47;17.63;;;3.40;99.90;;;;;;4935747;29;20058;-74
2023/01/20 11:31:41;;;;;;;31.02;16.45;;;3.40;99.90;;;;;;4935838;29;20054;-74
2023/01/20 11:34:33;;;;;;;33.65;17.52;;;3.50;99.90;;;;;;4935896;29;20073;-74
2023/01/20 11:37:02;;;;;;;34.90;17.92;;;3.40;99.90;;;;;;4935632;29;20071;-74
2023/01/20 11:39:59;;;;;;;31.88;17.13;;;3.40;99.90;;;;;;4935913;29;20173;-74
2023/01/20 11:42:42;;;;;;;32.83;17.33;;;3.40;99.90;;;;;;4941887;29;20063;-74
2023/01/20 11:45:25;;;;;;;36.83;18.25;;;3.30;99.90;;;;;;4951824;29;20062;-74
2023/01/20 11:48:14;;;;;;;32.63;16.85;;;3.20;99.90;;;;;;4951301;29;20093;-74
2023/01/20 11:50:56;;;;;;;30.95;16.77;;;3.30;99.90;;;;;;4943697;29;20047;-74
2023/01/20 11:53:27;;;;;;;31.65;16.08;;;3.20;99.90;;;;;;4947456;29;20065;-73
2023/01/20 11:55:58;;;;;;;32.70;17.02;;;3.20;99.90;;;;;;4941029;29;20043;-74
2023/01/20 11:58:27;;;;;;;34.53;17.25;;;3.20;99.90;;;;;;4932552;29;20690;-74
2023/01/20 12:01:04;;;;;;;32.10;16.70;;;3.20;99.90;;;;;;4946219;29;20773;-74
2023/01/20 12:03:50;;;;;;;28.73;15.98;;;3.20;99.90;;;;;;4941665;29;20116;-74
2023/01/20 12:06:39;;;;;;;27.88;15.48;;;3.10;99.90;;;;;;4939253;29;20126;-74
2023/01/20 12:09:11;;;;;;;26.73;15.00;;;3.10;99.90;;;;;;4931821;29;20740;-74
2023/01/20 12:12:03;;;;;;;23.25;12.60;;;3.10;99.90;;;;;;4938130;29;20055;-74
2023/01/20 12:14:44;;;;;;;24.20;13.02;;;3.10;99.90;;;;;;4935619;29;20079;-73
2023/01/20 12:17:28;;;;;;;30.13;15.43;;;3.10;99.90;;;;;;4940352;29;20336;-73
2023/01/20 12:20:19;;;;;;;33.13;17.30;;;3.20;99.90;;;;;;4936904;29;20051;-74
2023/01/20 12:23:09;;;;;;;27.98;14.48;;;3.10;99.90;;;;;;4965041;28;20089;-74
2023/01/20 12:25:42;;;;;;;28.65;15.70;;;3.10;99.90;;;;;;4942886;28;20058;-73
2023/01/20 12:28:20;;;;;;;31.40;16.30;;;3.10;99.90;;;;;;4955206;29;20051;-73
2023/01/20 12:30:57;;;;;;;30.92;15.85;;;3.10;99.90;;;;;;4953906;29;20059;-73
2023/01/20 12:33:31;;;;;;;29.00;15.13;;;3.20;99.90;;;;;;4948362;29;20087;-74
2023/01/20 12:36:19;;;;;;;35.95;18.98;;;3.10;99.90;;;;;;4946643;29;20448;-75
2023/01/20 12:38:59;;;;;;;32.60;16.80;;;3.10;99.90;;;;;;4931166;29;20070;-74
2023/01/20 12:41:52;;;;;;;32.38;17.00;;;3.10;99.90;;;;;;4937331;29;20058;-75
2023/01/20 12:44:42;;;;;;;34.40;17.65;;;3.10;99.90;;;;;;4924117;29;20046;-75
2023/01/20 12:47:13;;;;;;;32.63;16.33;;;3.10;99.90;;;;;;4923596;29;20047;-75
2023/01/20 12:50:08;;;;;;;31.88;16.27;;;3.10;99.90;;;;;;4935295;29;20714;-77
2023/01/20 12:52:39;;;;;;;29.00;16.58;;;3.10;99.90;;;;;;4935909;29;20035;-75
2023/01/20 12:55:36;;;;;;;28.00;15.52;;;3.10;99.90;;;;;;4938244;29;20091;-75
2023/01/20 12:58:08;;;;;;;26.25;13.63;;;3.10;99.90;;;;;;4930439;29;20046;-75
2023/01/20 13:00:45;;;;;;;23.80;12.60;;;3.10;99.90;;;;;;4927157;29;20047;-75
2023/01/20 13:03:51;;;;;;;27.77;14.88;;;3.00;99.90;;;;;;4926278;29;20050;-75
2023/01/20 13:06:41;;;;;;;32.88;16.67;;;3.00;99.90;;;;;;4929102;29;20075;-75
2023/01/20 13:09:48;;;;;;;27.88;14.98;;;3.00;99.90;;;;;;4929164;29;20091;-75
2023/01/20 13:12:26;;;;;;;26.58;14.20;;;3.10;99.90;;;;;;4928720;29;20057;-74
2023/01/20 13:15:01;;;;;;;29.33;15.02;;;3.00;99.90;;;;;;4956026;28;20043;-75